<?xml version="1.0" encoding="UTF-8" standalone="no" ?>
<gpx xmlns="http://www.topografix.com/GPX/1/1" xmlns:xsi="http://www.w3.org/2001/XMLSchema-instance" xsi:schemaLocation="http://www.topografix.com/GPX/1/1 http://www.topografix.com/GPX/1/1/gpx.xsd" version="1.1" creator="VisuGPX - https://www.visugpx.com">
  <metadata>
    <name>VSA Montagne criterium 11oct 2026 Parcours 9km</name>
    <desc><![CDATA[4ieme criterium Vallis Bonna 11 Oct 2026: Parcours 9km]]></desc>
  </metadata>
  <wpt lat="43.62272" lon="7.04406">
    <ele>157</ele>
    <name><![CDATA[Point de passage 1]]></name>
  </wpt>
  <wpt lat="43.62271" lon="7.04407">
    <ele>157</ele>
    <name><![CDATA[Point de passage 2]]></name>
  </wpt>
  <trk>
    <name><![CDATA[Projet MANO Criterium départ Bermond - Circuit Val martin 8K]]></name>
    <extensions>
      <line xmlns="http://www.topografix.com/GPX/gpx_style/0/2">
        <color>0000FF</color>
        <width>4</width>
      </line>
    </extensions>
    <trkseg>
      <trkpt lat="43.62272" lon="7.04406">
        <ele>157</ele>
        <time>2026-05-21T09:43:36.000Z</time>
      </trkpt>
      <trkpt lat="43.6233" lon="7.04364">
        <ele>163</ele>
        <time>2026-05-21T09:45:53.000Z</time>
      </trkpt>
      <trkpt lat="43.6241" lon="7.04292">
        <ele>165</ele>
        <time>2026-05-21T09:48:03.000Z</time>
      </trkpt>
      <trkpt lat="43.62422" lon="7.04279">
        <ele>165</ele>
        <time>2026-05-21T09:48:20.000Z</time>
      </trkpt>
      <trkpt lat="43.62441" lon="7.04225">
        <ele>170</ele>
        <time>2026-05-21T09:50:01.000Z</time>
      </trkpt>
      <trkpt lat="43.62482" lon="7.04172">
        <ele>176</ele>
        <time>2026-05-21T09:52:06.000Z</time>
      </trkpt>
      <trkpt lat="43.62494" lon="7.04169">
        <ele>175</ele>
        <time>2026-05-21T09:52:21.000Z</time>
      </trkpt>
      <trkpt lat="43.62484" lon="7.04168">
        <ele>175.8</ele>
        <time>2026-05-21T09:52:34.747Z</time>
      </trkpt>
      <trkpt lat="43.62494" lon="7.04169">
        <ele>175.4</ele>
        <time>2026-05-21T09:52:48.494Z</time>
      </trkpt>
      <trkpt lat="43.62535" lon="7.04174">
        <ele>173.5</ele>
        <time>2026-05-21T09:53:42.477Z</time>
      </trkpt>
      <trkpt lat="43.6254" lon="7.04176">
        <ele>173.4</ele>
        <time>2026-05-21T09:53:49.251Z</time>
      </trkpt>
      <trkpt lat="43.6257" lon="7.04161">
        <ele>173.2</ele>
        <time>2026-05-21T09:54:30.903Z</time>
      </trkpt>
      <trkpt lat="43.62578" lon="7.04157">
        <ele>173.3</ele>
        <time>2026-05-21T09:54:42.816Z</time>
      </trkpt>
      <trkpt lat="43.62585" lon="7.04154">
        <ele>173.4</ele>
        <time>2026-05-21T09:54:51.422Z</time>
      </trkpt>
      <trkpt lat="43.62586" lon="7.04167">
        <ele>172.9</ele>
        <time>2026-05-21T09:55:03.877Z</time>
      </trkpt>
      <trkpt lat="43.62589" lon="7.04187">
        <ele>172.1</ele>
        <time>2026-05-21T09:55:23.264Z</time>
      </trkpt>
      <trkpt lat="43.62589" lon="7.0419">
        <ele>171.9</ele>
        <time>2026-05-21T09:55:25.675Z</time>
      </trkpt>
      <trkpt lat="43.62592" lon="7.04185">
        <ele>172.3</ele>
        <time>2026-05-21T09:55:32.294Z</time>
      </trkpt>
      <trkpt lat="43.62597" lon="7.0418">
        <ele>172.3</ele>
        <time>2026-05-21T09:55:39.974Z</time>
      </trkpt>
      <trkpt lat="43.626" lon="7.04179">
        <ele>172.1</ele>
        <time>2026-05-21T09:55:44.359Z</time>
      </trkpt>
      <trkpt lat="43.62603" lon="7.04178">
        <ele>171.8</ele>
        <time>2026-05-21T09:55:48.118Z</time>
      </trkpt>
      <trkpt lat="43.62604" lon="7.04178">
        <ele>171.8</ele>
        <time>2026-05-21T09:55:48.652Z</time>
      </trkpt>
      <trkpt lat="43.62609" lon="7.04181">
        <ele>171.3</ele>
        <time>2026-05-21T09:55:55.868Z</time>
      </trkpt>
      <trkpt lat="43.62623" lon="7.04192">
        <ele>169.9</ele>
        <time>2026-05-21T09:56:17.249Z</time>
      </trkpt>
      <trkpt lat="43.62629" lon="7.04182">
        <ele>170</ele>
        <time>2026-05-21T09:56:29.413Z</time>
      </trkpt>
      <trkpt lat="43.62633" lon="7.04166">
        <ele>170.5</ele>
        <time>2026-05-21T09:56:45.159Z</time>
      </trkpt>
      <trkpt lat="43.62637" lon="7.04151">
        <ele>170.7</ele>
        <time>2026-05-21T09:56:59.983Z</time>
      </trkpt>
      <trkpt lat="43.62638" lon="7.04146">
        <ele>170.2</ele>
        <time>2026-05-21T09:57:05.169Z</time>
      </trkpt>
      <trkpt lat="43.62638" lon="7.04138">
        <ele>169.4</ele>
        <time>2026-05-21T09:57:12.740Z</time>
      </trkpt>
      <trkpt lat="43.62637" lon="7.04135">
        <ele>169.4</ele>
        <time>2026-05-21T09:57:15.338Z</time>
      </trkpt>
      <trkpt lat="43.62634" lon="7.0412">
        <ele>167.6</ele>
        <time>2026-05-21T09:57:29.693Z</time>
      </trkpt>
      <trkpt lat="43.62634" lon="7.04113">
        <ele>167.3</ele>
        <time>2026-05-21T09:57:35.962Z</time>
      </trkpt>
      <trkpt lat="43.62634" lon="7.04107">
        <ele>166.8</ele>
        <time>2026-05-21T09:57:41.842Z</time>
      </trkpt>
      <trkpt lat="43.62636" lon="7.04103">
        <ele>166.7</ele>
        <time>2026-05-21T09:57:46.905Z</time>
      </trkpt>
      <trkpt lat="43.62644" lon="7.04099">
        <ele>166.2</ele>
        <time>2026-05-21T09:57:57.176Z</time>
      </trkpt>
      <trkpt lat="43.62666" lon="7.04087">
        <ele>164.3</ele>
        <time>2026-05-21T09:58:28.503Z</time>
      </trkpt>
      <trkpt lat="43.62668" lon="7.04087">
        <ele>163.9</ele>
        <time>2026-05-21T09:58:30.665Z</time>
      </trkpt>
      <trkpt lat="43.62683" lon="7.04079">
        <ele>163.6</ele>
        <time>2026-05-21T09:58:51.039Z</time>
      </trkpt>
      <trkpt lat="43.62659" lon="7.03998">
        <ele>165.1</ele>
        <time>2026-05-21T10:00:12.485Z</time>
      </trkpt>
      <trkpt lat="43.62658" lon="7.03994">
        <ele>165.2</ele>
        <time>2026-05-21T10:00:16.385Z</time>
      </trkpt>
      <trkpt lat="43.62659" lon="7.03979">
        <ele>166</ele>
        <time>2026-05-21T10:00:30.667Z</time>
      </trkpt>
      <trkpt lat="43.62658" lon="7.03974">
        <ele>166.3</ele>
        <time>2026-05-21T10:00:34.974Z</time>
      </trkpt>
      <trkpt lat="43.62657" lon="7.03971">
        <ele>166.4</ele>
        <time>2026-05-21T10:00:38.170Z</time>
      </trkpt>
      <trkpt lat="43.62657" lon="7.03971">
        <ele>166.4</ele>
        <time>2026-05-21T10:00:38.786Z</time>
      </trkpt>
      <trkpt lat="43.62654" lon="7.03965">
        <ele>166.9</ele>
        <time>2026-05-21T10:00:45.840Z</time>
      </trkpt>
      <trkpt lat="43.62642" lon="7.03952">
        <ele>167.5</ele>
        <time>2026-05-21T10:01:04.918Z</time>
      </trkpt>
      <trkpt lat="43.62611" lon="7.03921">
        <ele>169.6</ele>
        <time>2026-05-21T10:01:53.940Z</time>
      </trkpt>
      <trkpt lat="43.62595" lon="7.03905">
        <ele>170.8</ele>
        <time>2026-05-21T10:02:19.653Z</time>
      </trkpt>
      <trkpt lat="43.62576" lon="7.03885">
        <ele>172.5</ele>
        <time>2026-05-21T10:02:50.935Z</time>
      </trkpt>
      <trkpt lat="43.62568" lon="7.03876">
        <ele>173</ele>
        <time>2026-05-21T10:03:03.574Z</time>
      </trkpt>
      <trkpt lat="43.6256" lon="7.03867">
        <ele>174.2</ele>
        <time>2026-05-21T10:03:17.266Z</time>
      </trkpt>
      <trkpt lat="43.62557" lon="7.03862">
        <ele>174.6</ele>
        <time>2026-05-21T10:03:23.316Z</time>
      </trkpt>
      <trkpt lat="43.62533" lon="7.0383">
        <ele>177.1</ele>
        <time>2026-05-21T10:04:06.467Z</time>
      </trkpt>
      <trkpt lat="43.6252" lon="7.03813">
        <ele>178.3</ele>
        <time>2026-05-21T10:04:30.074Z</time>
      </trkpt>
      <trkpt lat="43.62498" lon="7.0379">
        <ele>180.1</ele>
        <time>2026-05-21T10:05:05.091Z</time>
      </trkpt>
      <trkpt lat="43.62491" lon="7.03784">
        <ele>180.3</ele>
        <time>2026-05-21T10:05:15.454Z</time>
      </trkpt>
      <trkpt lat="43.62484" lon="7.03777">
        <ele>180.8</ele>
        <time>2026-05-21T10:05:27.308Z</time>
      </trkpt>
      <trkpt lat="43.62479" lon="7.03775">
        <ele>181.2</ele>
        <time>2026-05-21T10:05:33.329Z</time>
      </trkpt>
      <trkpt lat="43.62478" lon="7.03768">
        <ele>181.5</ele>
        <time>2026-05-21T10:05:40.384Z</time>
      </trkpt>
      <trkpt lat="43.62475" lon="7.03758">
        <ele>181.5</ele>
        <time>2026-05-21T10:05:50.342Z</time>
      </trkpt>
      <trkpt lat="43.62473" lon="7.0375">
        <ele>181.7</ele>
        <time>2026-05-21T10:05:58.577Z</time>
      </trkpt>
      <trkpt lat="43.62473" lon="7.03742">
        <ele>181.8</ele>
        <time>2026-05-21T10:06:06.052Z</time>
      </trkpt>
      <trkpt lat="43.62473" lon="7.03734">
        <ele>182.1</ele>
        <time>2026-05-21T10:06:13.060Z</time>
      </trkpt>
      <trkpt lat="43.62472" lon="7.03728">
        <ele>182.2</ele>
        <time>2026-05-21T10:06:18.771Z</time>
      </trkpt>
      <trkpt lat="43.62468" lon="7.03721">
        <ele>182.4</ele>
        <time>2026-05-21T10:06:26.880Z</time>
      </trkpt>
      <trkpt lat="43.6252" lon="7.03728">
        <ele>184</ele>
        <time>2026-05-21T10:07:34.090Z</time>
      </trkpt>
      <trkpt lat="43.62574" lon="7.03724">
        <ele>185</ele>
        <time>2026-05-21T10:08:46.090Z</time>
      </trkpt>
      <trkpt lat="43.62586" lon="7.03727">
        <ele>186</ele>
        <time>2026-05-21T10:09:10.090Z</time>
      </trkpt>
      <trkpt lat="43.6262" lon="7.03754">
        <ele>189</ele>
        <time>2026-05-21T10:10:26.090Z</time>
      </trkpt>
      <trkpt lat="43.6265" lon="7.03757">
        <ele>191</ele>
        <time>2026-05-21T10:11:21.090Z</time>
      </trkpt>
      <trkpt lat="43.62662" lon="7.03754">
        <ele>191.8</ele>
        <time>2026-05-21T10:11:41.734Z</time>
      </trkpt>
      <trkpt lat="43.62662" lon="7.03754">
        <ele>191.8</ele>
        <time>2026-05-21T10:11:41.734Z</time>
      </trkpt>
      <trkpt lat="43.62676" lon="7.03747">
        <ele>192.9</ele>
        <time>2026-05-21T10:12:05.016Z</time>
      </trkpt>
      <trkpt lat="43.62705" lon="7.03729">
        <ele>195.1</ele>
        <time>2026-05-21T10:12:55.858Z</time>
      </trkpt>
      <trkpt lat="43.6272" lon="7.03716">
        <ele>196.6</ele>
        <time>2026-05-21T10:13:25.274Z</time>
      </trkpt>
      <trkpt lat="43.62727" lon="7.03708">
        <ele>197.4</ele>
        <time>2026-05-21T10:13:39.920Z</time>
      </trkpt>
      <trkpt lat="43.62724" lon="7.03702">
        <ele>197.2</ele>
        <time>2026-05-21T10:13:49.010Z</time>
      </trkpt>
      <trkpt lat="43.62739" lon="7.03684">
        <ele>198.3</ele>
        <time>2026-05-21T10:14:21.110Z</time>
      </trkpt>
      <trkpt lat="43.62776" lon="7.03644">
        <ele>200</ele>
        <time>2026-05-21T10:15:37.312Z</time>
      </trkpt>
      <trkpt lat="43.62781" lon="7.03639">
        <ele>200.1</ele>
        <time>2026-05-21T10:15:47.233Z</time>
      </trkpt>
      <trkpt lat="43.62788" lon="7.03633">
        <ele>200.2</ele>
        <time>2026-05-21T10:15:59.465Z</time>
      </trkpt>
      <trkpt lat="43.62792" lon="7.0363">
        <ele>200.3</ele>
        <time>2026-05-21T10:16:08.340Z</time>
      </trkpt>
      <trkpt lat="43.62795" lon="7.03628">
        <ele>200.4</ele>
        <time>2026-05-21T10:16:13.304Z</time>
      </trkpt>
      <trkpt lat="43.62798" lon="7.03626">
        <ele>200.4</ele>
        <time>2026-05-21T10:16:18.269Z</time>
      </trkpt>
      <trkpt lat="43.62799" lon="7.03623">
        <ele>200.4</ele>
        <time>2026-05-21T10:16:21.781Z</time>
      </trkpt>
      <trkpt lat="43.62801" lon="7.03621">
        <ele>200.6</ele>
        <time>2026-05-21T10:16:24.922Z</time>
      </trkpt>
      <trkpt lat="43.62801" lon="7.03621">
        <ele>200.6</ele>
        <time>2026-05-21T10:16:26.352Z</time>
      </trkpt>
      <trkpt lat="43.62803" lon="7.03618">
        <ele>200.6</ele>
        <time>2026-05-21T10:16:29.408Z</time>
      </trkpt>
      <trkpt lat="43.62804" lon="7.03616">
        <ele>200.7</ele>
        <time>2026-05-21T10:16:32.309Z</time>
      </trkpt>
      <trkpt lat="43.62807" lon="7.03611">
        <ele>200.7</ele>
        <time>2026-05-21T10:16:38.339Z</time>
      </trkpt>
      <trkpt lat="43.62808" lon="7.03608">
        <ele>200.8</ele>
        <time>2026-05-21T10:16:41.216Z</time>
      </trkpt>
      <trkpt lat="43.62811" lon="7.03598">
        <ele>201</ele>
        <time>2026-05-21T10:16:51.318Z</time>
      </trkpt>
      <trkpt lat="43.62811" lon="7.03594">
        <ele>201.1</ele>
        <time>2026-05-21T10:16:55.466Z</time>
      </trkpt>
      <trkpt lat="43.62812" lon="7.0359">
        <ele>201.3</ele>
        <time>2026-05-21T10:16:58.409Z</time>
      </trkpt>
      <trkpt lat="43.62812" lon="7.03587">
        <ele>201.3</ele>
        <time>2026-05-21T10:17:01.706Z</time>
      </trkpt>
      <trkpt lat="43.62812" lon="7.03584">
        <ele>201.4</ele>
        <time>2026-05-21T10:17:04.635Z</time>
      </trkpt>
      <trkpt lat="43.62812" lon="7.0358">
        <ele>201.4</ele>
        <time>2026-05-21T10:17:07.932Z</time>
      </trkpt>
      <trkpt lat="43.62812" lon="7.03576">
        <ele>201.6</ele>
        <time>2026-05-21T10:17:11.893Z</time>
      </trkpt>
      <trkpt lat="43.62812" lon="7.0357">
        <ele>202.1</ele>
        <time>2026-05-21T10:17:18.012Z</time>
      </trkpt>
      <trkpt lat="43.62812" lon="7.03569">
        <ele>202.1</ele>
        <time>2026-05-21T10:17:18.576Z</time>
      </trkpt>
      <trkpt lat="43.62822" lon="7.03562">
        <ele>202.2</ele>
        <time>2026-05-21T10:17:33.065Z</time>
      </trkpt>
      <trkpt lat="43.62828" lon="7.03558">
        <ele>201.8</ele>
        <time>2026-05-21T10:17:41.854Z</time>
      </trkpt>
      <trkpt lat="43.62836" lon="7.03558">
        <ele>201.1</ele>
        <time>2026-05-21T10:17:52.597Z</time>
      </trkpt>
      <trkpt lat="43.62846" lon="7.03525">
        <ele>201</ele>
        <time>2026-05-21T10:18:27.446Z</time>
      </trkpt>
      <trkpt lat="43.62909" lon="7.03407">
        <ele>197</ele>
        <time>2026-05-21T10:20:28.446Z</time>
      </trkpt>
      <trkpt lat="43.62916" lon="7.0335">
        <ele>194</ele>
        <time>2026-05-21T10:21:15.446Z</time>
      </trkpt>
      <trkpt lat="43.62913" lon="7.03304">
        <ele>191</ele>
        <time>2026-05-21T10:21:54.446Z</time>
      </trkpt>
      <trkpt lat="43.62903" lon="7.03277">
        <ele>189</ele>
        <time>2026-05-21T10:22:19.446Z</time>
      </trkpt>
      <trkpt lat="43.62878" lon="7.03237">
        <ele>186</ele>
        <time>2026-05-21T10:23:02.446Z</time>
      </trkpt>
      <trkpt lat="43.62875" lon="7.03221">
        <ele>185</ele>
        <time>2026-05-21T10:23:16.446Z</time>
      </trkpt>
      <trkpt lat="43.62878" lon="7.03202">
        <ele>184</ele>
        <time>2026-05-21T10:23:32.446Z</time>
      </trkpt>
      <trkpt lat="43.62897" lon="7.03147">
        <ele>181</ele>
        <time>2026-05-21T10:24:23.446Z</time>
      </trkpt>
      <trkpt lat="43.62902" lon="7.03121">
        <ele>180</ele>
        <time>2026-05-21T10:24:45.446Z</time>
      </trkpt>
      <trkpt lat="43.62894" lon="7.0306">
        <ele>177</ele>
        <time>2026-05-21T10:25:37.446Z</time>
      </trkpt>
      <trkpt lat="43.62894" lon="7.03037">
        <ele>176</ele>
        <time>2026-05-21T10:25:56.446Z</time>
      </trkpt>
      <trkpt lat="43.62908" lon="7.02964">
        <ele>171</ele>
        <time>2026-05-21T10:26:58.446Z</time>
      </trkpt>
      <trkpt lat="43.62912" lon="7.02927">
        <ele>169</ele>
        <time>2026-05-21T10:27:29.446Z</time>
      </trkpt>
      <trkpt lat="43.62905" lon="7.02817">
        <ele>160</ele>
        <time>2026-05-21T10:29:00.446Z</time>
      </trkpt>
      <trkpt lat="43.62908" lon="7.028">
        <ele>159</ele>
        <time>2026-05-21T10:29:15.446Z</time>
      </trkpt>
      <trkpt lat="43.62908" lon="7.028">
        <ele>159</ele>
        <time>2026-05-21T10:29:15.446Z</time>
      </trkpt>
      <trkpt lat="43.62915" lon="7.02792">
        <ele>158</ele>
        <time>2026-05-21T10:29:25.446Z</time>
      </trkpt>
      <trkpt lat="43.62928" lon="7.02791">
        <ele>158</ele>
        <time>2026-05-21T10:29:41.446Z</time>
      </trkpt>
      <trkpt lat="43.6295" lon="7.0278">
        <ele>160</ele>
        <time>2026-05-21T10:30:27.446Z</time>
      </trkpt>
      <trkpt lat="43.6299" lon="7.02734">
        <ele>166</ele>
        <time>2026-05-21T10:32:29.446Z</time>
      </trkpt>
      <trkpt lat="43.63016" lon="7.02689">
        <ele>170</ele>
        <time>2026-05-21T10:33:58.446Z</time>
      </trkpt>
      <trkpt lat="43.6305" lon="7.02594">
        <ele>173</ele>
        <time>2026-05-21T10:35:56.446Z</time>
      </trkpt>
      <trkpt lat="43.6305" lon="7.02594">
        <ele>173</ele>
        <time>2026-05-21T10:35:56.446Z</time>
      </trkpt>
      <trkpt lat="43.63064" lon="7.02581">
        <ele>172</ele>
        <time>2026-05-21T10:36:15.446Z</time>
      </trkpt>
      <trkpt lat="43.63087" lon="7.02543">
        <ele>170</ele>
        <time>2026-05-21T10:36:56.446Z</time>
      </trkpt>
      <trkpt lat="43.63149" lon="7.02541">
        <ele>175</ele>
        <time>2026-05-21T10:38:58.446Z</time>
      </trkpt>
      <trkpt lat="43.63162" lon="7.02568">
        <ele>175</ele>
        <time>2026-05-21T10:39:25.446Z</time>
      </trkpt>
      <trkpt lat="43.63166" lon="7.02598">
        <ele>175</ele>
        <time>2026-05-21T10:39:50.446Z</time>
      </trkpt>
      <trkpt lat="43.63148" lon="7.0264">
        <ele>177</ele>
        <time>2026-05-21T10:40:51.446Z</time>
      </trkpt>
      <trkpt lat="43.6309" lon="7.0282">
        <ele>187</ele>
        <time>2026-05-21T10:45:17.446Z</time>
      </trkpt>
      <trkpt lat="43.63083" lon="7.02866">
        <ele>189</ele>
        <time>2026-05-21T10:46:17.446Z</time>
      </trkpt>
      <trkpt lat="43.63086" lon="7.0291">
        <ele>190</ele>
        <time>2026-05-21T10:47:04.446Z</time>
      </trkpt>
      <trkpt lat="43.63089" lon="7.02928">
        <ele>191</ele>
        <time>2026-05-21T10:47:30.446Z</time>
      </trkpt>
      <trkpt lat="43.63104" lon="7.02971">
        <ele>192</ele>
        <time>2026-05-21T10:48:20.446Z</time>
      </trkpt>
      <trkpt lat="43.63107" lon="7.03012">
        <ele>194</ele>
        <time>2026-05-21T10:49:15.446Z</time>
      </trkpt>
      <trkpt lat="43.63125" lon="7.03085">
        <ele>196</ele>
        <time>2026-05-21T10:50:40.446Z</time>
      </trkpt>
      <trkpt lat="43.63127" lon="7.03139">
        <ele>196</ele>
        <time>2026-05-21T10:51:25.446Z</time>
      </trkpt>
      <trkpt lat="43.63138" lon="7.03176">
        <ele>195</ele>
        <time>2026-05-21T10:51:58.446Z</time>
      </trkpt>
      <trkpt lat="43.63151" lon="7.03203">
        <ele>196</ele>
        <time>2026-05-21T10:52:35.446Z</time>
      </trkpt>
      <trkpt lat="43.63159" lon="7.03229">
        <ele>195</ele>
        <time>2026-05-21T10:52:59.446Z</time>
      </trkpt>
      <trkpt lat="43.63182" lon="7.03335">
        <ele>198</ele>
        <time>2026-05-21T10:55:02.446Z</time>
      </trkpt>
      <trkpt lat="43.63194" lon="7.03367">
        <ele>199</ele>
        <time>2026-05-21T10:55:42.446Z</time>
      </trkpt>
      <trkpt lat="43.63205" lon="7.03402">
        <ele>199</ele>
        <time>2026-05-21T10:56:13.446Z</time>
      </trkpt>
      <trkpt lat="43.6322" lon="7.03426">
        <ele>196</ele>
        <time>2026-05-21T10:56:40.446Z</time>
      </trkpt>
      <trkpt lat="43.63236" lon="7.03439">
        <ele>195</ele>
        <time>2026-05-21T10:57:01.446Z</time>
      </trkpt>
      <trkpt lat="43.63271" lon="7.0345">
        <ele>192</ele>
        <time>2026-05-21T10:57:42.446Z</time>
      </trkpt>
      <trkpt lat="43.63275" lon="7.0346">
        <ele>191</ele>
        <time>2026-05-21T10:57:51.446Z</time>
      </trkpt>
      <trkpt lat="43.63279" lon="7.03529">
        <ele>185</ele>
        <time>2026-05-21T10:58:48.446Z</time>
      </trkpt>
      <trkpt lat="43.63286" lon="7.03549">
        <ele>184</ele>
        <time>2026-05-21T10:59:07.446Z</time>
      </trkpt>
      <trkpt lat="43.63297" lon="7.03569">
        <ele>182</ele>
        <time>2026-05-21T10:59:27.446Z</time>
      </trkpt>
      <trkpt lat="43.63337" lon="7.0361">
        <ele>178</ele>
        <time>2026-05-21T11:00:24.446Z</time>
      </trkpt>
      <trkpt lat="43.63359" lon="7.03619">
        <ele>176</ele>
        <time>2026-05-21T11:00:50.446Z</time>
      </trkpt>
      <trkpt lat="43.63383" lon="7.03636">
        <ele>174</ele>
        <time>2026-05-21T11:01:21.446Z</time>
      </trkpt>
      <trkpt lat="43.63393" lon="7.03641">
        <ele>172</ele>
        <time>2026-05-21T11:01:34.446Z</time>
      </trkpt>
      <trkpt lat="43.63413" lon="7.03643">
        <ele>170</ele>
        <time>2026-05-21T11:01:57.446Z</time>
      </trkpt>
      <trkpt lat="43.63456" lon="7.03623">
        <ele>166</ele>
        <time>2026-05-21T11:02:49.446Z</time>
      </trkpt>
      <trkpt lat="43.63569" lon="7.03515">
        <ele>154</ele>
        <time>2026-05-21T11:05:27.446Z</time>
      </trkpt>
      <trkpt lat="43.63574" lon="7.03506">
        <ele>154</ele>
        <time>2026-05-21T11:05:36.446Z</time>
      </trkpt>
      <trkpt lat="43.63579" lon="7.03471">
        <ele>152</ele>
        <time>2026-05-21T11:06:06.446Z</time>
      </trkpt>
      <trkpt lat="43.63584" lon="7.03464">
        <ele>151</ele>
        <time>2026-05-21T11:06:14.446Z</time>
      </trkpt>
      <trkpt lat="43.63587" lon="7.03469">
        <ele>151</ele>
        <time>2026-05-21T11:06:19.446Z</time>
      </trkpt>
      <trkpt lat="43.63592" lon="7.03502">
        <ele>148</ele>
        <time>2026-05-21T11:06:48.446Z</time>
      </trkpt>
      <trkpt lat="43.63593" lon="7.03541">
        <ele>145</ele>
        <time>2026-05-21T11:07:20.446Z</time>
      </trkpt>
      <trkpt lat="43.63586" lon="7.03563">
        <ele>144</ele>
        <time>2026-05-21T11:07:40.446Z</time>
      </trkpt>
      <trkpt lat="43.63567" lon="7.03588">
        <ele>142</ele>
        <time>2026-05-21T11:08:10.446Z</time>
      </trkpt>
      <trkpt lat="43.63567" lon="7.03597">
        <ele>141</ele>
        <time>2026-05-21T11:08:17.446Z</time>
      </trkpt>
      <trkpt lat="43.6358" lon="7.03604">
        <ele>140</ele>
        <time>2026-05-21T11:08:33.446Z</time>
      </trkpt>
      <trkpt lat="43.63594" lon="7.03592">
        <ele>138</ele>
        <time>2026-05-21T11:08:52.446Z</time>
      </trkpt>
      <trkpt lat="43.63602" lon="7.03593">
        <ele>136</ele>
        <time>2026-05-21T11:09:01.446Z</time>
      </trkpt>
      <trkpt lat="43.63606" lon="7.03604">
        <ele>139</ele>
        <time>2026-05-21T11:09:42.446Z</time>
      </trkpt>
      <trkpt lat="43.63586" lon="7.03642">
        <ele>140</ele>
        <time>2026-05-21T11:10:30.446Z</time>
      </trkpt>
      <trkpt lat="43.63552" lon="7.03652">
        <ele>140</ele>
        <time>2026-05-21T11:11:10.446Z</time>
      </trkpt>
      <trkpt lat="43.63542" lon="7.03662">
        <ele>139</ele>
        <time>2026-05-21T11:11:24.446Z</time>
      </trkpt>
      <trkpt lat="43.63541" lon="7.03673">
        <ele>139</ele>
        <time>2026-05-21T11:11:33.446Z</time>
      </trkpt>
      <trkpt lat="43.6356" lon="7.03745">
        <ele>144</ele>
        <time>2026-05-21T11:13:28.446Z</time>
      </trkpt>
      <trkpt lat="43.63561" lon="7.03761">
        <ele>144</ele>
        <time>2026-05-21T11:13:41.446Z</time>
      </trkpt>
      <trkpt lat="43.63555" lon="7.038">
        <ele>146</ele>
        <time>2026-05-21T11:14:35.446Z</time>
      </trkpt>
      <trkpt lat="43.63536" lon="7.03851">
        <ele>148</ele>
        <time>2026-05-21T11:15:43.446Z</time>
      </trkpt>
      <trkpt lat="43.63506" lon="7.03894">
        <ele>150</ele>
        <time>2026-05-21T11:16:53.446Z</time>
      </trkpt>
      <trkpt lat="43.63483" lon="7.03909">
        <ele>152</ele>
        <time>2026-05-21T11:17:43.446Z</time>
      </trkpt>
      <trkpt lat="43.6347" lon="7.03914">
        <ele>151</ele>
        <time>2026-05-21T11:17:58.446Z</time>
      </trkpt>
      <trkpt lat="43.63425" lon="7.03909">
        <ele>150</ele>
        <time>2026-05-21T11:18:50.446Z</time>
      </trkpt>
      <trkpt lat="43.63414" lon="7.03918">
        <ele>149</ele>
        <time>2026-05-21T11:19:05.446Z</time>
      </trkpt>
      <trkpt lat="43.63395" lon="7.03941">
        <ele>146</ele>
        <time>2026-05-21T11:19:34.446Z</time>
      </trkpt>
      <trkpt lat="43.63391" lon="7.03979">
        <ele>144</ele>
        <time>2026-05-21T11:20:06.446Z</time>
      </trkpt>
      <trkpt lat="43.6339" lon="7.04041">
        <ele>142</ele>
        <time>2026-05-21T11:20:57.446Z</time>
      </trkpt>
      <trkpt lat="43.63398" lon="7.04059">
        <ele>142</ele>
        <time>2026-05-21T11:21:14.446Z</time>
      </trkpt>
      <trkpt lat="43.63433" lon="7.04085">
        <ele>143</ele>
        <time>2026-05-21T11:22:10.446Z</time>
      </trkpt>
      <trkpt lat="43.63451" lon="7.0412">
        <ele>142</ele>
        <time>2026-05-21T11:22:46.446Z</time>
      </trkpt>
      <trkpt lat="43.63483" lon="7.04156">
        <ele>141</ele>
        <time>2026-05-21T11:23:33.446Z</time>
      </trkpt>
      <trkpt lat="43.63499" lon="7.04179">
        <ele>142</ele>
        <time>2026-05-21T11:24:10.446Z</time>
      </trkpt>
      <trkpt lat="43.63517" lon="7.042">
        <ele>143</ele>
        <time>2026-05-21T11:24:47.446Z</time>
      </trkpt>
      <trkpt lat="43.63534" lon="7.04208">
        <ele>144</ele>
        <time>2026-05-21T11:25:18.446Z</time>
      </trkpt>
      <trkpt lat="43.63542" lon="7.0421">
        <ele>144</ele>
        <time>2026-05-21T11:25:28.446Z</time>
      </trkpt>
      <trkpt lat="43.63567" lon="7.04202">
        <ele>144</ele>
        <time>2026-05-21T11:25:57.446Z</time>
      </trkpt>
      <trkpt lat="43.6358" lon="7.04202">
        <ele>144</ele>
        <time>2026-05-21T11:26:11.446Z</time>
      </trkpt>
      <trkpt lat="43.63599" lon="7.0422">
        <ele>144</ele>
        <time>2026-05-21T11:26:37.446Z</time>
      </trkpt>
      <trkpt lat="43.63643" lon="7.04235">
        <ele>143</ele>
        <time>2026-05-21T11:27:29.446Z</time>
      </trkpt>
      <trkpt lat="43.63646" lon="7.04253">
        <ele>143</ele>
        <time>2026-05-21T11:27:45.446Z</time>
      </trkpt>
      <trkpt lat="43.63659" lon="7.04266">
        <ele>143</ele>
        <time>2026-05-21T11:28:03.446Z</time>
      </trkpt>
      <trkpt lat="43.63694" lon="7.04289">
        <ele>144</ele>
        <time>2026-05-21T11:28:57.446Z</time>
      </trkpt>
      <trkpt lat="43.63692" lon="7.04333">
        <ele>144</ele>
        <time>2026-05-21T11:29:33.446Z</time>
      </trkpt>
      <trkpt lat="43.63698" lon="7.0437">
        <ele>141</ele>
        <time>2026-05-21T11:30:04.446Z</time>
      </trkpt>
      <trkpt lat="43.63711" lon="7.04415">
        <ele>140</ele>
        <time>2026-05-21T11:30:45.446Z</time>
      </trkpt>
      <trkpt lat="43.63721" lon="7.04419">
        <ele>143</ele>
        <time>2026-05-21T11:31:28.446Z</time>
      </trkpt>
      <trkpt lat="43.6372" lon="7.04427">
        <ele>143</ele>
        <time>2026-05-21T11:31:35.446Z</time>
      </trkpt>
      <trkpt lat="43.63709" lon="7.04437">
        <ele>143</ele>
        <time>2026-05-21T11:31:51.446Z</time>
      </trkpt>
      <trkpt lat="43.63703" lon="7.0445">
        <ele>142</ele>
        <time>2026-05-21T11:32:04.446Z</time>
      </trkpt>
      <trkpt lat="43.63703" lon="7.04464">
        <ele>141</ele>
        <time>2026-05-21T11:32:16.446Z</time>
      </trkpt>
      <trkpt lat="43.6371" lon="7.04476">
        <ele>141</ele>
        <time>2026-05-21T11:32:29.446Z</time>
      </trkpt>
      <trkpt lat="43.63711" lon="7.04491">
        <ele>140</ele>
        <time>2026-05-21T11:32:42.446Z</time>
      </trkpt>
      <trkpt lat="43.63695" lon="7.04507">
        <ele>137</ele>
        <time>2026-05-21T11:33:05.446Z</time>
      </trkpt>
      <trkpt lat="43.63692" lon="7.04514">
        <ele>137</ele>
        <time>2026-05-21T11:33:12.446Z</time>
      </trkpt>
      <trkpt lat="43.63698" lon="7.04563">
        <ele>135</ele>
        <time>2026-05-21T11:33:53.446Z</time>
      </trkpt>
      <trkpt lat="43.63711" lon="7.04591">
        <ele>133</ele>
        <time>2026-05-21T11:34:20.446Z</time>
      </trkpt>
      <trkpt lat="43.6371" lon="7.04603">
        <ele>132</ele>
        <time>2026-05-21T11:34:31.446Z</time>
      </trkpt>
      <trkpt lat="43.63672" lon="7.04662">
        <ele>128</ele>
        <time>2026-05-21T11:35:36.446Z</time>
      </trkpt>
      <trkpt lat="43.63656" lon="7.04672">
        <ele>126</ele>
        <time>2026-05-21T11:35:55.446Z</time>
      </trkpt>
      <trkpt lat="43.63639" lon="7.04693">
        <ele>122</ele>
        <time>2026-05-21T11:36:21.446Z</time>
      </trkpt>
      <trkpt lat="43.63627" lon="7.04702">
        <ele>122</ele>
        <time>2026-05-21T11:36:36.446Z</time>
      </trkpt>
      <trkpt lat="43.63619" lon="7.047">
        <ele>123</ele>
        <time>2026-05-21T11:36:56.446Z</time>
      </trkpt>
      <trkpt lat="43.6361" lon="7.04716">
        <ele>122</ele>
        <time>2026-05-21T11:37:13.446Z</time>
      </trkpt>
      <trkpt lat="43.63598" lon="7.04725">
        <ele>121</ele>
        <time>2026-05-21T11:37:29.446Z</time>
      </trkpt>
      <trkpt lat="43.63593" lon="7.04738">
        <ele>121</ele>
        <time>2026-05-21T11:37:42.446Z</time>
      </trkpt>
      <trkpt lat="43.63592" lon="7.04756">
        <ele>120</ele>
        <time>2026-05-21T11:37:57.446Z</time>
      </trkpt>
      <trkpt lat="43.63588" lon="7.04768">
        <ele>118</ele>
        <time>2026-05-21T11:38:08.446Z</time>
      </trkpt>
      <trkpt lat="43.63578" lon="7.04782">
        <ele>117</ele>
        <time>2026-05-21T11:38:24.446Z</time>
      </trkpt>
      <trkpt lat="43.63555" lon="7.04837">
        <ele>113</ele>
        <time>2026-05-21T11:39:16.446Z</time>
      </trkpt>
      <trkpt lat="43.63539" lon="7.04856">
        <ele>112</ele>
        <time>2026-05-21T11:39:40.446Z</time>
      </trkpt>
      <trkpt lat="43.63528" lon="7.04875">
        <ele>110</ele>
        <time>2026-05-21T11:40:01.446Z</time>
      </trkpt>
      <trkpt lat="43.63505" lon="7.04892">
        <ele>102</ele>
        <time>2026-05-21T11:40:31.446Z</time>
      </trkpt>
      <trkpt lat="43.6349" lon="7.04913">
        <ele>97</ele>
        <time>2026-05-21T11:40:55.446Z</time>
      </trkpt>
      <trkpt lat="43.6348" lon="7.04917">
        <ele>93</ele>
        <time>2026-05-21T11:41:07.446Z</time>
      </trkpt>
      <trkpt lat="43.63447" lon="7.0492">
        <ele>95</ele>
        <time>2026-05-21T11:42:05.446Z</time>
      </trkpt>
      <trkpt lat="43.63447" lon="7.0492">
        <ele>95</ele>
        <time>2026-05-21T11:42:05.446Z</time>
      </trkpt>
      <trkpt lat="43.63443" lon="7.04932">
        <ele>95</ele>
        <time>2026-05-21T11:42:15.446Z</time>
      </trkpt>
      <trkpt lat="43.63451" lon="7.04976">
        <ele>96</ele>
        <time>2026-05-21T11:43:03.446Z</time>
      </trkpt>
      <trkpt lat="43.6345" lon="7.05012">
        <ele>98</ele>
        <time>2026-05-21T11:43:53.446Z</time>
      </trkpt>
      <trkpt lat="43.63453" lon="7.05015">
        <ele>98</ele>
        <time>2026-05-21T11:43:56.446Z</time>
      </trkpt>
      <trkpt lat="43.6345" lon="7.05024">
        <ele>99</ele>
        <time>2026-05-21T11:44:14.446Z</time>
      </trkpt>
      <trkpt lat="43.63445" lon="7.05042">
        <ele>99</ele>
        <time>2026-05-21T11:44:30.446Z</time>
      </trkpt>
      <trkpt lat="43.63394" lon="7.05101">
        <ele>107</ele>
        <time>2026-05-21T11:47:09.446Z</time>
      </trkpt>
      <trkpt lat="43.63365" lon="7.05115">
        <ele>110</ele>
        <time>2026-05-21T11:48:15.446Z</time>
      </trkpt>
      <trkpt lat="43.63356" lon="7.05114">
        <ele>111</ele>
        <time>2026-05-21T11:48:35.446Z</time>
      </trkpt>
      <trkpt lat="43.63349" lon="7.05108">
        <ele>112</ele>
        <time>2026-05-21T11:48:55.446Z</time>
      </trkpt>
      <trkpt lat="43.63352" lon="7.05048">
        <ele>116</ele>
        <time>2026-05-21T11:50:27.446Z</time>
      </trkpt>
      <trkpt lat="43.6336" lon="7.05001">
        <ele>119</ele>
        <time>2026-05-21T11:51:38.446Z</time>
      </trkpt>
      <trkpt lat="43.63359" lon="7.04945">
        <ele>122</ele>
        <time>2026-05-21T11:52:55.446Z</time>
      </trkpt>
      <trkpt lat="43.63351" lon="7.04921">
        <ele>123</ele>
        <time>2026-05-21T11:53:27.446Z</time>
      </trkpt>
      <trkpt lat="43.63332" lon="7.04901">
        <ele>126</ele>
        <time>2026-05-21T11:54:26.446Z</time>
      </trkpt>
      <trkpt lat="43.63323" lon="7.04889">
        <ele>127</ele>
        <time>2026-05-21T11:54:51.446Z</time>
      </trkpt>
      <trkpt lat="43.63288" lon="7.04803">
        <ele>133</ele>
        <time>2026-05-21T11:57:15.446Z</time>
      </trkpt>
      <trkpt lat="43.63286" lon="7.04784">
        <ele>134</ele>
        <time>2026-05-21T11:57:41.446Z</time>
      </trkpt>
      <trkpt lat="43.63289" lon="7.04722">
        <ele>138</ele>
        <time>2026-05-21T11:59:14.446Z</time>
      </trkpt>
      <trkpt lat="43.63309" lon="7.04649">
        <ele>141</ele>
        <time>2026-05-21T12:00:49.446Z</time>
      </trkpt>
      <trkpt lat="43.63328" lon="7.04616">
        <ele>142</ele>
        <time>2026-05-21T12:01:33.446Z</time>
      </trkpt>
      <trkpt lat="43.63347" lon="7.04593">
        <ele>144</ele>
        <time>2026-05-21T12:02:23.446Z</time>
      </trkpt>
      <trkpt lat="43.63358" lon="7.04564">
        <ele>144</ele>
        <time>2026-05-21T12:02:51.446Z</time>
      </trkpt>
      <trkpt lat="43.63359" lon="7.04535">
        <ele>145</ele>
        <time>2026-05-21T12:03:25.446Z</time>
      </trkpt>
      <trkpt lat="43.63354" lon="7.04464">
        <ele>147</ele>
        <time>2026-05-21T12:04:45.446Z</time>
      </trkpt>
      <trkpt lat="43.63345" lon="7.04416">
        <ele>148</ele>
        <time>2026-05-21T12:05:36.446Z</time>
      </trkpt>
      <trkpt lat="43.63338" lon="7.04395">
        <ele>148</ele>
        <time>2026-05-21T12:05:55.446Z</time>
      </trkpt>
      <trkpt lat="43.63321" lon="7.04361">
        <ele>147</ele>
        <time>2026-05-21T12:06:29.446Z</time>
      </trkpt>
      <trkpt lat="43.63298" lon="7.04336">
        <ele>148</ele>
        <time>2026-05-21T12:07:13.446Z</time>
      </trkpt>
      <trkpt lat="43.63276" lon="7.04302">
        <ele>153</ele>
        <time>2026-05-21T12:08:42.446Z</time>
      </trkpt>
      <trkpt lat="43.63248" lon="7.04275">
        <ele>155</ele>
        <time>2026-05-21T12:09:42.446Z</time>
      </trkpt>
      <trkpt lat="43.63237" lon="7.04234">
        <ele>158</ele>
        <time>2026-05-21T12:10:50.446Z</time>
      </trkpt>
      <trkpt lat="43.63201" lon="7.04179">
        <ele>163</ele>
        <time>2026-05-21T12:12:42.446Z</time>
      </trkpt>
      <trkpt lat="43.63174" lon="7.04116">
        <ele>166</ele>
        <time>2026-05-21T12:14:14.446Z</time>
      </trkpt>
      <trkpt lat="43.63163" lon="7.04097">
        <ele>166</ele>
        <time>2026-05-21T12:14:34.446Z</time>
      </trkpt>
      <trkpt lat="43.63126" lon="7.04033">
        <ele>168</ele>
        <time>2026-05-21T12:16:03.446Z</time>
      </trkpt>
      <trkpt lat="43.63086" lon="7.03976">
        <ele>169</ele>
        <time>2026-05-21T12:17:19.446Z</time>
      </trkpt>
      <trkpt lat="43.63074" lon="7.03952">
        <ele>167</ele>
        <time>2026-05-21T12:17:43.446Z</time>
      </trkpt>
      <trkpt lat="43.63059" lon="7.03912">
        <ele>166</ele>
        <time>2026-05-21T12:18:20.446Z</time>
      </trkpt>
      <trkpt lat="43.63097" lon="7.03855">
        <ele>169</ele>
        <time>2026-05-21T12:19:55.446Z</time>
      </trkpt>
      <trkpt lat="43.63104" lon="7.03837">
        <ele>172</ele>
        <time>2026-05-21T12:20:43.446Z</time>
      </trkpt>
      <trkpt lat="43.63109" lon="7.03791">
        <ele>174</ele>
        <time>2026-05-21T12:21:42.446Z</time>
      </trkpt>
      <trkpt lat="43.63108" lon="7.03778">
        <ele>176</ele>
        <time>2026-05-21T12:22:14.446Z</time>
      </trkpt>
      <trkpt lat="43.63103" lon="7.03763">
        <ele>177</ele>
        <time>2026-05-21T12:22:38.446Z</time>
      </trkpt>
      <trkpt lat="43.62985" lon="7.03654">
        <ele>193</ele>
        <time>2026-05-21T12:28:05.446Z</time>
      </trkpt>
      <trkpt lat="43.62904" lon="7.03592">
        <ele>199</ele>
        <time>2026-05-21T12:30:52.446Z</time>
      </trkpt>
      <trkpt lat="43.6286" lon="7.03576">
        <ele>200</ele>
        <time>2026-05-21T12:31:54.446Z</time>
      </trkpt>
      <trkpt lat="43.62836" lon="7.03558">
        <ele>201.1</ele>
        <time>2026-05-21T12:32:28.240Z</time>
      </trkpt>
      <trkpt lat="43.62828" lon="7.03558">
        <ele>201.8</ele>
        <time>2026-05-21T12:32:38.396Z</time>
      </trkpt>
      <trkpt lat="43.62822" lon="7.03562">
        <ele>202.2</ele>
        <time>2026-05-21T12:32:46.705Z</time>
      </trkpt>
      <trkpt lat="43.62812" lon="7.03569">
        <ele>202.1</ele>
        <time>2026-05-21T12:33:00.403Z</time>
      </trkpt>
      <trkpt lat="43.62812" lon="7.03576">
        <ele>201.6</ele>
        <time>2026-05-21T12:33:06.757Z</time>
      </trkpt>
      <trkpt lat="43.62812" lon="7.0358">
        <ele>201.4</ele>
        <time>2026-05-21T12:33:10.523Z</time>
      </trkpt>
      <trkpt lat="43.62812" lon="7.03584">
        <ele>201.4</ele>
        <time>2026-05-21T12:33:13.657Z</time>
      </trkpt>
      <trkpt lat="43.62812" lon="7.03587">
        <ele>201.3</ele>
        <time>2026-05-21T12:33:16.441Z</time>
      </trkpt>
      <trkpt lat="43.62812" lon="7.0359">
        <ele>201.3</ele>
        <time>2026-05-21T12:33:19.575Z</time>
      </trkpt>
      <trkpt lat="43.62811" lon="7.03594">
        <ele>201.1</ele>
        <time>2026-05-21T12:33:22.373Z</time>
      </trkpt>
      <trkpt lat="43.62811" lon="7.03598">
        <ele>201</ele>
        <time>2026-05-21T12:33:26.316Z</time>
      </trkpt>
      <trkpt lat="43.62808" lon="7.03608">
        <ele>200.8</ele>
        <time>2026-05-21T12:33:35.919Z</time>
      </trkpt>
      <trkpt lat="43.62807" lon="7.0361">
        <ele>200.8</ele>
        <time>2026-05-21T12:33:37.818Z</time>
      </trkpt>
      <trkpt lat="43.62807" lon="7.03611">
        <ele>200.7</ele>
        <time>2026-05-21T12:33:38.437Z</time>
      </trkpt>
      <trkpt lat="43.62804" lon="7.03616">
        <ele>200.7</ele>
        <time>2026-05-21T12:33:43.714Z</time>
      </trkpt>
      <trkpt lat="43.62803" lon="7.03618">
        <ele>200.6</ele>
        <time>2026-05-21T12:33:46.252Z</time>
      </trkpt>
      <trkpt lat="43.62801" lon="7.03621">
        <ele>200.6</ele>
        <time>2026-05-21T12:33:48.926Z</time>
      </trkpt>
      <trkpt lat="43.62798" lon="7.03626">
        <ele>200.4</ele>
        <time>2026-05-21T12:33:54.622Z</time>
      </trkpt>
      <trkpt lat="43.62792" lon="7.0363">
        <ele>200.3</ele>
        <time>2026-05-21T12:34:01.619Z</time>
      </trkpt>
      <trkpt lat="43.62791" lon="7.03631">
        <ele>200.2</ele>
        <time>2026-05-21T12:34:03.690Z</time>
      </trkpt>
      <trkpt lat="43.62788" lon="7.03633">
        <ele>200.2</ele>
        <time>2026-05-21T12:34:07.873Z</time>
      </trkpt>
      <trkpt lat="43.62781" lon="7.03639">
        <ele>200.1</ele>
        <time>2026-05-21T12:34:16.493Z</time>
      </trkpt>
      <trkpt lat="43.62776" lon="7.03644">
        <ele>200</ele>
        <time>2026-05-21T12:34:23.485Z</time>
      </trkpt>
      <trkpt lat="43.62739" lon="7.03684">
        <ele>198.3</ele>
        <time>2026-05-21T12:35:17.189Z</time>
      </trkpt>
      <trkpt lat="43.62724" lon="7.03702">
        <ele>197.2</ele>
        <time>2026-05-21T12:35:39.812Z</time>
      </trkpt>
      <trkpt lat="43.62727" lon="7.03708">
        <ele>197.4</ele>
        <time>2026-05-21T12:35:46.218Z</time>
      </trkpt>
      <trkpt lat="43.6272" lon="7.03716">
        <ele>196.6</ele>
        <time>2026-05-21T12:35:56.540Z</time>
      </trkpt>
      <trkpt lat="43.62705" lon="7.03729">
        <ele>195.1</ele>
        <time>2026-05-21T12:36:17.271Z</time>
      </trkpt>
      <trkpt lat="43.62676" lon="7.03747">
        <ele>192.9</ele>
        <time>2026-05-21T12:36:53.102Z</time>
      </trkpt>
      <trkpt lat="43.62662" lon="7.03754">
        <ele>191.8</ele>
        <time>2026-05-21T12:37:09.510Z</time>
      </trkpt>
      <trkpt lat="43.62662" lon="7.03754">
        <ele>191.8</ele>
        <time>2026-05-21T12:37:09.510Z</time>
      </trkpt>
      <trkpt lat="43.62642" lon="7.03758">
        <ele>190</ele>
        <time>2026-05-21T12:37:33.294Z</time>
      </trkpt>
      <trkpt lat="43.6262" lon="7.03754">
        <ele>189</ele>
        <time>2026-05-21T12:37:58.294Z</time>
      </trkpt>
      <trkpt lat="43.62578" lon="7.03724">
        <ele>186</ele>
        <time>2026-05-21T12:38:52.294Z</time>
      </trkpt>
      <trkpt lat="43.6252" lon="7.03728">
        <ele>184</ele>
        <time>2026-05-21T12:39:58.294Z</time>
      </trkpt>
      <trkpt lat="43.62468" lon="7.03721">
        <ele>182.4</ele>
        <time>2026-05-21T12:41:00.587Z</time>
      </trkpt>
      <trkpt lat="43.62472" lon="7.03728">
        <ele>182.2</ele>
        <time>2026-05-21T12:41:08.103Z</time>
      </trkpt>
      <trkpt lat="43.62473" lon="7.03734">
        <ele>182.1</ele>
        <time>2026-05-21T12:41:13.397Z</time>
      </trkpt>
      <trkpt lat="43.62473" lon="7.03742">
        <ele>181.8</ele>
        <time>2026-05-21T12:41:19.892Z</time>
      </trkpt>
      <trkpt lat="43.62473" lon="7.0375">
        <ele>181.7</ele>
        <time>2026-05-21T12:41:26.820Z</time>
      </trkpt>
      <trkpt lat="43.62475" lon="7.03758">
        <ele>181.5</ele>
        <time>2026-05-21T12:41:34.452Z</time>
      </trkpt>
      <trkpt lat="43.62478" lon="7.03768">
        <ele>181.5</ele>
        <time>2026-05-21T12:41:43.682Z</time>
      </trkpt>
      <trkpt lat="43.62479" lon="7.03775">
        <ele>181.2</ele>
        <time>2026-05-21T12:41:50.221Z</time>
      </trkpt>
      <trkpt lat="43.62484" lon="7.03777">
        <ele>180.8</ele>
        <time>2026-05-21T12:41:55.801Z</time>
      </trkpt>
      <trkpt lat="43.62491" lon="7.03784">
        <ele>180.3</ele>
        <time>2026-05-21T12:42:06.788Z</time>
      </trkpt>
      <trkpt lat="43.62498" lon="7.0379">
        <ele>180.1</ele>
        <time>2026-05-21T12:42:16.393Z</time>
      </trkpt>
      <trkpt lat="43.6252" lon="7.03813">
        <ele>178.3</ele>
        <time>2026-05-21T12:42:48.848Z</time>
      </trkpt>
      <trkpt lat="43.62533" lon="7.0383">
        <ele>177.1</ele>
        <time>2026-05-21T12:43:10.728Z</time>
      </trkpt>
      <trkpt lat="43.62557" lon="7.03862">
        <ele>174.6</ele>
        <time>2026-05-21T12:43:50.722Z</time>
      </trkpt>
      <trkpt lat="43.6256" lon="7.03867">
        <ele>174.2</ele>
        <time>2026-05-21T12:43:56.329Z</time>
      </trkpt>
      <trkpt lat="43.62568" lon="7.03876">
        <ele>173</ele>
        <time>2026-05-21T12:44:09.020Z</time>
      </trkpt>
      <trkpt lat="43.62576" lon="7.03885">
        <ele>172.5</ele>
        <time>2026-05-21T12:44:20.734Z</time>
      </trkpt>
      <trkpt lat="43.62595" lon="7.03905">
        <ele>170.8</ele>
        <time>2026-05-21T12:44:49.728Z</time>
      </trkpt>
      <trkpt lat="43.62611" lon="7.03921">
        <ele>169.6</ele>
        <time>2026-05-21T12:45:13.560Z</time>
      </trkpt>
      <trkpt lat="43.62642" lon="7.03952">
        <ele>167.5</ele>
        <time>2026-05-21T12:45:58.996Z</time>
      </trkpt>
      <trkpt lat="43.62654" lon="7.03965">
        <ele>166.9</ele>
        <time>2026-05-21T12:46:16.678Z</time>
      </trkpt>
      <trkpt lat="43.62657" lon="7.03971">
        <ele>166.4</ele>
        <time>2026-05-21T12:46:23.216Z</time>
      </trkpt>
      <trkpt lat="43.62657" lon="7.03971">
        <ele>166.4</ele>
        <time>2026-05-21T12:46:23.518Z</time>
      </trkpt>
      <trkpt lat="43.62658" lon="7.03974">
        <ele>166.3</ele>
        <time>2026-05-21T12:46:26.956Z</time>
      </trkpt>
      <trkpt lat="43.62659" lon="7.03979">
        <ele>166</ele>
        <time>2026-05-21T12:46:31.183Z</time>
      </trkpt>
      <trkpt lat="43.62658" lon="7.03994">
        <ele>165.2</ele>
        <time>2026-05-21T12:46:45.201Z</time>
      </trkpt>
      <trkpt lat="43.62659" lon="7.03998">
        <ele>165.1</ele>
        <time>2026-05-21T12:46:49.029Z</time>
      </trkpt>
      <trkpt lat="43.62683" lon="7.04079">
        <ele>163.6</ele>
        <time>2026-05-21T12:48:08.969Z</time>
      </trkpt>
      <trkpt lat="43.62668" lon="7.04087">
        <ele>163.9</ele>
        <time>2026-05-21T12:48:28.966Z</time>
      </trkpt>
      <trkpt lat="43.62666" lon="7.04087">
        <ele>164.3</ele>
        <time>2026-05-21T12:48:31.088Z</time>
      </trkpt>
      <trkpt lat="43.62644" lon="7.04099">
        <ele>166.2</ele>
        <time>2026-05-21T12:49:01.836Z</time>
      </trkpt>
      <trkpt lat="43.62636" lon="7.04103">
        <ele>166.7</ele>
        <time>2026-05-21T12:49:11.917Z</time>
      </trkpt>
      <trkpt lat="43.62634" lon="7.04107">
        <ele>166.8</ele>
        <time>2026-05-21T12:49:16.886Z</time>
      </trkpt>
      <trkpt lat="43.62634" lon="7.04113">
        <ele>167.3</ele>
        <time>2026-05-21T12:49:22.657Z</time>
      </trkpt>
      <trkpt lat="43.62634" lon="7.0412">
        <ele>167.6</ele>
        <time>2026-05-21T12:49:28.810Z</time>
      </trkpt>
      <trkpt lat="43.62637" lon="7.04135">
        <ele>169.4</ele>
        <time>2026-05-21T12:49:42.900Z</time>
      </trkpt>
      <trkpt lat="43.62638" lon="7.04138">
        <ele>169.4</ele>
        <time>2026-05-21T12:49:45.450Z</time>
      </trkpt>
      <trkpt lat="43.62638" lon="7.04146">
        <ele>170.2</ele>
        <time>2026-05-21T12:49:52.881Z</time>
      </trkpt>
      <trkpt lat="43.62637" lon="7.04151">
        <ele>170.7</ele>
        <time>2026-05-21T12:49:57.972Z</time>
      </trkpt>
      <trkpt lat="43.62633" lon="7.04166">
        <ele>170.5</ele>
        <time>2026-05-21T12:50:12.522Z</time>
      </trkpt>
      <trkpt lat="43.62629" lon="7.04182">
        <ele>170</ele>
        <time>2026-05-21T12:50:27.977Z</time>
      </trkpt>
      <trkpt lat="43.62623" lon="7.04192">
        <ele>169.9</ele>
        <time>2026-05-21T12:50:39.917Z</time>
      </trkpt>
      <trkpt lat="43.62609" lon="7.04181">
        <ele>171.3</ele>
        <time>2026-05-21T12:51:00.903Z</time>
      </trkpt>
      <trkpt lat="43.62604" lon="7.04178">
        <ele>171.8</ele>
        <time>2026-05-21T12:51:07.985Z</time>
      </trkpt>
      <trkpt lat="43.626" lon="7.04179">
        <ele>172.1</ele>
        <time>2026-05-21T12:51:12.114Z</time>
      </trkpt>
      <trkpt lat="43.62597" lon="7.0418">
        <ele>172.3</ele>
        <time>2026-05-21T12:51:16.331Z</time>
      </trkpt>
      <trkpt lat="43.62592" lon="7.04185">
        <ele>172.3</ele>
        <time>2026-05-21T12:51:23.717Z</time>
      </trkpt>
      <trkpt lat="43.62589" lon="7.0419">
        <ele>171.9</ele>
        <time>2026-05-21T12:51:30.083Z</time>
      </trkpt>
      <trkpt lat="43.62589" lon="7.04187">
        <ele>172.1</ele>
        <time>2026-05-21T12:51:32.312Z</time>
      </trkpt>
      <trkpt lat="43.62586" lon="7.04167">
        <ele>172.9</ele>
        <time>2026-05-21T12:51:51.048Z</time>
      </trkpt>
      <trkpt lat="43.62585" lon="7.04154">
        <ele>173.4</ele>
        <time>2026-05-21T12:52:03.027Z</time>
      </trkpt>
      <trkpt lat="43.62578" lon="7.04157">
        <ele>173.3</ele>
        <time>2026-05-21T12:52:11.304Z</time>
      </trkpt>
      <trkpt lat="43.6257" lon="7.04161">
        <ele>173.2</ele>
        <time>2026-05-21T12:52:22.762Z</time>
      </trkpt>
      <trkpt lat="43.6254" lon="7.04176">
        <ele>173.4</ele>
        <time>2026-05-21T12:53:02.822Z</time>
      </trkpt>
      <trkpt lat="43.62535" lon="7.04174">
        <ele>173.5</ele>
        <time>2026-05-21T12:53:09.337Z</time>
      </trkpt>
      <trkpt lat="43.62494" lon="7.04169">
        <ele>175.4</ele>
        <time>2026-05-21T12:54:01.256Z</time>
      </trkpt>
      <trkpt lat="43.62482" lon="7.04172">
        <ele>175.7</ele>
        <time>2026-05-21T12:54:17.720Z</time>
      </trkpt>
      <trkpt lat="43.62482" lon="7.04172">
        <ele>175.7</ele>
        <time>2026-05-21T12:54:17.720Z</time>
      </trkpt>
      <trkpt lat="43.62441" lon="7.04225">
        <ele>170</ele>
        <time>2026-05-21T12:55:27.883Z</time>
      </trkpt>
      <trkpt lat="43.62422" lon="7.04279">
        <ele>165</ele>
        <time>2026-05-21T12:56:17.883Z</time>
      </trkpt>
      <trkpt lat="43.6241" lon="7.04292">
        <ele>165</ele>
        <time>2026-05-21T12:56:34.883Z</time>
      </trkpt>
      <trkpt lat="43.6233" lon="7.04364">
        <ele>163</ele>
        <time>2026-05-21T12:58:23.883Z</time>
      </trkpt>
      <trkpt lat="43.62271" lon="7.04407">
        <ele>157</ele>
        <time>2026-05-21T12:59:39.883Z</time>
      </trkpt>
    </trkseg>
  </trk>
</gpx>